Latest Weather Observations for Leonora Airport

IDW60801

Issued at 11:32 pm WST Sunday 26 April 2015 (issued every 30 minutes, with the page automatically refreshed every 10 minutes)

About weather observations | Map of weather stations | Latest weather observations for WA | Other Formats
Station Details ID: 012241 Name: LEONORA AERO Lat: -28.88 Lon: 121.32 Height: 370.0 m
Data from the previous 72 hours. | See also: Recent months for locations in Western Australia
Date/Time
WST
Temp
°C
App
Temp
°C
Dew
Point
Rel
Hum
%
Delta-T
°C
Wind Press
QNH
hPa
Press
MSL
hPa
Rain
since 9 am
mm
Dir
 
Spd
km/h
Gust
km/h
Spd
kts
Gust
kts
26/11:30pm 13.4 9.6 4.0 53 4.3 ESE 13 19 7 10 1026.2 1024.7 0.0
26/11:00pm 13.8 9.7 4.1 52 4.5 ESE 15 20 8 11 1026.3 1024.8 0.0
26/10:30pm 14.3 10.2 4.3 51 4.7 ESE 15 19 8 10 1026.4 1024.9 0.0
26/10:00pm 14.9 11.2 4.3 49 5.0 ESE 13 17 7 9 1026.5 1025.0 0.0
26/09:30pm 15.1 11.0 4.2 48 5.1 ESE 15 19 8 10 1026.2 1024.7 0.0
26/09:00pm 15.8 12.1 4.2 46 5.5 ESE 13 19 7 10 1026.0 1024.5 0.0
26/08:30pm 16.4 12.3 4.1 44 5.9 ESE 15 20 8 11 1025.9 1024.4 0.0
26/08:00pm 16.9 12.0 3.9 42 6.1 ESE 19 26 10 14 1025.8 1024.3 0.0
26/07:30pm 17.0 12.8 4.0 42 6.2 ESE 15 22 8 12 1025.5 1024.0 0.0
26/07:00pm 17.4 13.6 3.7 40 6.5 ESE 13 15 7 8 1025.2 1023.6 0.0
26/06:30pm 18.3 14.3 3.0 36 7.2 ESE 13 17 7 9 1025.1 1023.5 0.0
26/06:00pm 19.1 14.4 2.9 34 7.6 E 17 22 9 12 1024.8 1023.2 0.0
26/05:30pm 19.6 14.9 2.9 33 7.9 E 17 22 9 12 1024.5 1022.9 0.0
26/05:00pm 20.2 15.1 3.0 32 8.2 ESE 19 24 10 13 1024.5 1022.9 0.0
26/04:30pm 20.9 15.7 2.7 30 8.7 E 19 26 10 14 1024.3 1022.7 0.0
26/04:00pm 21.1 15.9 3.3 31 8.6 E 20 30 11 16 1024.2 1022.6 0.0
26/03:30pm 21.1 16.0 3.3 31 8.6 ESE 19 28 10 15 1024.1 1022.5 0.0
26/03:00pm 21.5 16.9 3.7 31 8.7 ESE 17 30 9 16 1024.0 1022.4 0.0
26/02:30pm 21.7 16.7 3.4 30 8.9 E 19 28 10 15 1024.2 1022.6 0.0
26/02:00pm 21.1 16.4 3.3 31 8.6 ENE 17 30 9 16 1024.3 1022.7 0.0
26/01:30pm 20.7 16.0 3.0 31 8.5 E 17 28 9 15 1024.4 1022.8 0.0
26/01:00pm 20.4 15.2 3.6 33 8.1 ENE 20 30 11 16 1024.7 1023.1 0.0
26/12:30pm 20.0 14.8 3.3 33 8.0 ENE 20 35 11 19 1025.3 1023.7 0.0
26/12:00pm 19.8 14.9 3.9 35 7.7 ENE 19 30 10 16 1025.6 1024.1 0.0
26/11:30am 19.1 13.9 3.7 36 7.4 NE 20 32 11 17 1026.3 1024.8 0.0
26/11:00am 19.4 14.4 4.7 38 7.2 ENE 20 30 11 16 1026.7 1025.2 0.0
26/10:30am 17.9 12.9 4.5 41 6.5 ENE 20 35 11 19 1027.1 1025.5 0.0
26/10:00am 17.6 11.4 4.5 42 6.3 ENE 26 33 14 18 1027.4 1025.8 0.0
26/09:30am 17.1 11.6 5.7 47 5.6 ENE 24 33 13 18 1027.6 1026.0 0.0
26/09:00am 16.1 11.3 5.7 50 5.1 ENE 20 33 11 18 1027.6 1026.0 0.0
26/08:30am 14.7 9.6 6.0 56 4.2 ENE 22 32 12 17 1027.6 1026.0 0.0
26/08:00am 13.1 8.8 5.3 59 3.7 E 17 26 9 14 1027.5 1025.9 0.0
26/07:30am 10.5 6.4 4.2 65 2.8 ESE 15 17 8 9 1027.2 1025.6 0.0
26/07:00am 9.3 5.9 3.9 69 2.4 ESE 11 13 6 7 1026.7 1025.2 0.0
26/06:30am 8.2 4.7 3.7 73 2.0 ESE 11 17 6 9 1026.5 1025.0 0.0
26/06:00am 8.1 5.0 3.6 73 2.0 ESE 9 13 5 7 1026.4 1024.9 0.0
26/05:30am 8.4 5.3 3.7 72 2.1 ESE 9 13 5 7 1026.2 1024.7 0.0
26/05:00am 8.8 5.7 3.8 71 2.2 ESE 9 11 5 6 1026.0 1024.5 0.0
26/04:30am 9.8 6.4 4.0 67 2.6 ENE 11 13 6 7 1026.0 1024.5 0.0
26/04:00am 10.3 6.9 4.2 66 2.8 ENE 11 15 6 8 1025.8 1024.3 0.0
26/03:30am 9.2 6.1 3.6 68 2.5 ESE 9 11 5 6 1025.7 1024.2 0.0
26/03:00am 9.7 6.6 3.7 66 2.7 ESE 9 11 5 6 1025.6 1024.1 0.0
26/02:30am 10.5 7.4 3.8 63 3.0 ESE 9 11 5 6 1025.7 1024.2 0.0
26/02:00am 11.4 8.4 3.9 60 3.4 E 9 13 5 7 1025.6 1024.1 0.0
26/01:30am 11.8 8.4 3.8 58 3.6 E 11 13 6 7 1025.6 1024.1 0.0
26/01:00am 12.1 8.7 3.9 57 3.7 ESE 11 15 6 8 1025.5 1024.0 0.0
26/12:30am 12.5 9.0 3.7 55 4.0 E 11 17 6 9 1025.6 1024.1 0.0
26/12:00am 13.3 9.5 3.9 53 4.3 E 13 19 7 10 1025.4 1023.9 0.0
 
Date/Time
WST
Temp
°C
App
Temp
°C
Dew
Point
Rel
Hum
%
Delta-T
°C
Wind Press
QNH
hPa
Press
MSL
hPa
Rain
since 9 am
mm
Dir
 
Spd
km/h
Gust
km/h
Spd
kts
Gust
kts
25/11:30pm 13.7 9.9 3.8 51 4.6 E 13 20 7 11 1025.5 1024.0 0.0
25/11:00pm 14.0 9.8 3.8 50 4.7 E 15 20 8 11 1025.4 1023.9 0.0
25/10:30pm 14.5 9.9 3.6 48 5.1 E 17 22 9 12 1025.3 1023.7 0.0
25/10:00pm 14.8 10.2 3.9 48 5.1 E 17 22 9 12 1025.3 1023.7 0.0
25/09:30pm 14.3 10.1 3.7 49 4.9 ESE 15 19 8 10 1025.5 1024.0 0.0
25/09:00pm 14.8 10.2 3.6 47 5.2 ESE 17 20 9 11 1025.4 1023.9 0.0
25/08:30pm 15.2 11.4 3.7 46 5.4 ESE 13 19 7 10 1025.2 1023.6 0.0
25/08:00pm 15.5 12.4 3.6 45 5.5 SE 9 17 5 9 1025.0 1023.4 0.0
25/07:30pm 15.9 12.7 3.0 42 6.0 SE 9 15 5 8 1024.9 1023.3 0.0
25/07:00pm 16.5 12.9 2.9 40 6.3 E 11 13 6 7 1024.6 1023.0 0.0
25/06:30pm 17.2 13.6 2.8 38 6.7 E 11 15 6 8 1024.3 1022.7 0.0
25/06:00pm 17.9 14.2 2.6 36 7.1 E 11 17 6 9 1024.2 1022.6 0.0
25/05:30pm 18.5 13.6 1.9 33 7.7 E 17 24 9 13 1024.0 1022.4 0.0
25/05:00pm 19.3 14.8 2.2 32 8.0 E 15 24 8 13 1023.6 1022.1 0.0
25/04:30pm 19.8 14.9 1.7 30 8.4 E 17 28 9 15 1023.4 1021.9 0.0
25/04:00pm 19.9 14.5 1.4 29 8.5 E 19 30 10 16 1023.4 1021.9 0.0
25/03:30pm 20.1 14.6 2.0 30 8.5 E 20 26 11 14 1023.4 1021.9 0.0
25/03:00pm 20.2 15.0 2.5 31 8.4 E 19 32 10 17 1023.4 1021.9 0.0
25/02:30pm 19.7 14.9 2.6 32 8.1 NE 17 28 9 15 1023.5 1022.0 0.0
25/02:00pm 19.8 14.5 3.1 33 8.0 E 20 30 11 16 1023.7 1022.2 0.0
25/01:30pm 19.3 15.0 3.1 34 7.7 ESE 15 26 8 14 1024.1 1022.5 0.0
25/01:00pm 18.8 14.1 3.0 35 7.5 ENE 17 26 9 14 1024.4 1022.8 0.0
25/12:30pm 17.9 13.6 3.0 37 7.0 NE 15 26 8 14 1024.7 1023.1 0.0
25/12:00pm 17.6 12.8 2.8 37 6.9 E 17 28 9 15 1025.4 1023.9 0.0
25/11:30am 17.0 11.9 3.0 39 6.5 ENE 19 24 10 13 1025.9 1024.4 0.0
25/11:00am 17.3 12.9 4.6 43 6.1 E 17 30 9 16 1026.3 1024.8 0.0
25/10:30am 16.2 11.6 3.9 44 5.8 ENE 17 24 9 13 1026.6 1025.1 0.0
25/10:00am 15.2 10.2 3.7 46 5.3 E 19 26 10 14 1027.2 1025.6 0.0
25/09:30am 15.2 9.7 4.0 47 5.3 E 22 32 12 17 1027.4 1025.8 0.0
25/09:00am 14.5 9.6 3.9 49 4.9 ENE 19 32 10 17 1027.4 1025.8 0.0
25/08:30am 13.4 8.2 3.8 52 4.4 ENE 20 26 11 14 1027.6 1026.0 0.0
25/08:00am 12.1 8.3 3.9 57 3.7 E 13 17 7 9 1027.5 1025.9 0.0
25/07:30am 10.1 6.5 3.2 62 3.1 E 11 15 6 8 1027.2 1025.6 0.0
25/07:00am 8.2 5.4 2.9 69 2.3 ESE 7 11 4 6 1026.7 1025.2 0.0
25/06:30am 6.8 3.9 2.5 74 1.8 ESE 7 9 4 5 1026.3 1024.8 0.0
25/06:00am 6.8 3.5 2.3 73 1.9 ESE 9 11 5 6 1026.0 1024.5 0.0
25/05:30am 7.3 4.0 2.4 71 2.1 E 9 13 5 7 1025.8 1024.3 0.0
25/05:00am 7.7 4.0 2.6 70 2.2 ESE 11 15 6 8 1025.6 1024.1 0.0
25/04:30am 8.2 4.2 2.7 68 2.4 ESE 13 17 7 9 1025.4 1023.9 0.0
25/04:00am 8.5 4.9 2.7 67 2.5 ESE 11 15 6 8 1025.6 1024.1 0.0
25/03:30am 8.6 4.6 2.6 66 2.6 ESE 13 15 7 8 1025.4 1023.9 0.0
25/03:00am 9.0 5.7 2.3 63 2.9 SE 9 13 5 7 1025.5 1024.0 0.0
25/02:30am 9.3 5.2 2.2 61 3.1 ESE 13 17 7 9 1025.4 1023.9 0.0
25/02:00am 10.0 5.5 2.4 59 3.3 ESE 15 19 8 10 1025.5 1024.0 0.0
25/01:30am 10.6 6.5 2.4 57 3.6 ESE 13 17 7 9 1025.6 1024.1 0.0
25/01:00am 11.1 7.0 2.4 55 3.8 SE 13 17 7 9 1025.7 1024.2 0.0
25/12:30am 11.4 7.3 2.4 54 4.0 ESE 13 17 7 9 1025.6 1024.1 0.0
25/12:00am 11.6 7.9 2.4 53 4.0 SE 11 17 6 9 1025.6 1024.1 0.0
 
Date/Time
WST
Temp
°C
App
Temp
°C
Dew
Point
Rel
Hum
%
Delta-T
°C
Wind Press
QNH
hPa
Press
MSL
hPa
Rain
since 9 am
mm
Dir
 
Spd
km/h
Gust
km/h
Spd
kts
Gust
kts
24/11:30pm 12.1 8.3 2.0 50 4.4 ESE 11 15 6 8 1025.4 1023.9 0.0
24/11:00pm 12.6 8.8 1.9 48 4.7 ESE 11 17 6 9 1025.3 1023.7 0.0
24/10:30pm 13.0 8.8 1.7 46 5.0 SE 13 19 7 10 1025.5 1024.0 0.0
24/10:00pm 13.3 8.7 1.6 45 5.1 ESE 15 17 8 9 1025.4 1023.9 0.0
24/09:30pm 13.9 9.6 1.2 42 5.6 ESE 13 17 7 9 1025.5 1024.0 0.0
24/09:00pm 14.7 10.4 1.3 40 5.9 SE 13 20 7 11 1025.3 1023.7 0.0
24/08:30pm 15.0 10.3 0.8 38 6.2 SE 15 20 8 11 1025.1 1023.5 0.0
24/08:00pm 15.1 10.3 0.5 37 6.3 SE 15 20 8 11 1025.1 1023.5 0.0
24/07:30pm 15.5 10.7 0.5 36 6.6 SE 15 20 8 11 1025.0 1023.4 0.0
24/07:00pm 15.7 10.6 0.7 36 6.6 SE 17 22 9 12 1024.8 1023.2 0.0
24/06:30pm 16.0 10.9 0.6 35 6.8 SE 17 24 9 13 1024.4 1022.8 0.0
24/06:00pm 16.3 11.1 0.4 34 7.0 SE 17 26 9 14 1024.3 1022.7 0.0
24/05:30pm 16.9 11.1 0.1 32 7.4 SE 20 30 11 16 1024.1 1022.5 0.0
24/05:00pm 17.3 11.5 0.0 31 7.6 SE 20 26 11 14 1024.0 1022.4 0.0
24/04:30pm 18.1 12.9 0.3 30 7.9 SE 17 26 9 14 1024.0 1022.4 0.0
24/04:00pm 18.7 12.9 -0.2 28 8.3 SE 20 30 11 16 1024.1 1022.5 0.0
24/03:30pm 18.3 12.1 0.0 29 8.1 ESE 22 32 12 17 1024.1 1022.5 0.0
24/03:00pm 18.5 12.9 1.1 31 7.9 ESE 20 28 11 15 1024.2 1022.6 0.0
24/02:30pm 18.4 12.5 1.9 33 7.6 SE 22 35 12 19 1024.1 1022.5 0.0
24/02:00pm 18.8 13.4 2.2 33 7.7 ESE 20 28 11 15 1024.0 1022.4 0.0
24/01:30pm 18.2 12.1 2.5 35 7.3 SE 24 35 13 19 1024.3 1022.7 0.0
24/01:00pm 18.5 12.5 3.6 37 7.1 SE 24 35 13 19 1024.3 1022.7 0.0
24/12:30pm 17.5 11.5 3.4 39 6.7 SE 24 33 13 18 1024.6 1023.0 0.0
24/12:00pm 17.2 11.0 4.5 43 6.1 SE 26 39 14 21 1025.0 1023.4 0.0
24/11:30am 16.8 11.5 4.8 45 5.8 SE 22 35 12 19 1025.4 1023.9 0.0
24/11:00am 16.6 11.0 5.6 48 5.4 ESE 24 32 13 17 1025.8 1024.3 0.0
24/10:30am 16.2 11.1 5.8 50 5.1 SE 22 33 12 18 1026.1 1024.6 0.0
24/10:00am 15.7 10.6 6.2 53 4.7 SE 22 33 12 18 1026.4 1024.9 0.0
24/09:30am 15.0 9.5 5.8 54 4.5 SE 24 35 13 19 1026.6 1025.1 0.0
24/09:00am 14.4 8.2 6.0 57 4.1 ESE 28 39 15 21 1026.7 1025.2 0.0
24/08:30am 14.1 8.6 6.0 58 3.9 SE 24 39 13 21 1026.9 1025.3 0.0
24/08:00am 13.1 7.4 6.5 64 3.2 ESE 26 37 14 20 1026.6 1025.1 0.0
24/07:30am 12.4 7.8 6.7 68 2.8 ESE 20 28 11 15 1026.4 1024.9 0.0
24/07:00am 11.6 7.5 6.3 70 2.5 SE 17 26 9 14 1026.1 1024.6 0.0
24/06:30am 11.2 7.1 6.1 71 2.4 SE 17 22 9 12 1025.6 1024.1 0.0
24/06:00am 11.3 7.2 6.0 70 2.5 SE 17 24 9 13 1025.3 1023.7 0.0
24/05:30am 11.6 7.4 5.7 67 2.8 SE 17 26 9 14 1024.9 1023.3 0.0
24/05:00am 11.8 7.6 5.7 66 2.9 SE 17 22 9 12 1024.6 1023.0 0.0
24/04:30am 12.3 7.7 5.7 64 3.1 SE 19 28 10 15 1024.5 1022.9 0.0
24/04:00am 12.7 8.1 5.8 63 3.3 SE 19 28 10 15 1024.3 1022.7 0.0
24/03:30am 12.9 8.1 5.8 62 3.4 SE 20 32 11 17 1024.0 1022.4 0.0
24/03:00am 13.3 9.1 5.9 61 3.6 SE 17 30 9 16 1023.7 1022.2 0.0
24/02:30am 13.8 9.2 6.4 61 3.6 SE 20 32 11 17 1023.6 1022.1 0.0
24/02:00am 14.3 9.7 6.6 60 3.8 SE 20 30 11 16 1023.5 1022.0 0.0
24/01:30am 15.0 10.7 7.1 59 4.0 SE 19 30 10 16 1023.4 1021.9 0.0
24/01:00am 15.7 11.5 7.5 58 4.1 SE 19 26 10 14 1023.4 1021.9 0.0
24/12:30am 16.3 12.0 7.8 57 4.4 SE 20 33 11 18 1023.2 1021.7 0.0
24/12:00am 16.9 12.7 7.5 54 4.8 SE 19 30 10 16 1022.9 1021.3 0.0

Other Formats:

Comma delimited format used in spreadsheet applications
http://www.bom.gov.au/fwo/IDW60801/IDW60801.94450.axf

JavaScript Object Notation format (JSON) in row-major order
http://www.bom.gov.au/fwo/IDW60801/IDW60801.94450.json